createdAt,value
2022-10-14T00:02:05.099Z,18.43
2022-10-14T00:04:52.126Z,18.33
2022-10-14T00:07:39.643Z,18.70
2022-10-14T00:10:26.563Z,19.30
2022-10-14T00:13:13.516Z,19.27
2022-10-14T00:16:01.030Z,18.50
2022-10-14T00:18:48.421Z,18.93
2022-10-14T00:21:38.296Z,19.13
2022-10-14T00:24:25.249Z,18.13
2022-10-14T00:27:12.176Z,17.43
2022-10-14T00:29:59.109Z,18.73
2022-10-14T00:32:46.259Z,18.57
2022-10-14T00:35:33.274Z,17.13
2022-10-14T00:38:20.205Z,19.03
2022-10-14T00:41:08.490Z,19.53
2022-10-14T00:44:26.415Z,18.23
2022-10-14T00:47:13.408Z,19.33
2022-10-14T00:50:01.088Z,17.33
2022-10-14T00:52:48.251Z,20.60
2022-10-14T00:55:35.273Z,22.43
2022-10-14T00:58:22.253Z,22.60
2022-10-14T01:01:09.301Z,21.03
2022-10-14T01:03:56.319Z,21.53
2022-10-14T01:07:16.640Z,21.40
2022-10-14T01:10:13.582Z,19.97
2022-10-14T01:13:25.055Z,22.77
2022-10-14T01:16:20.912Z,22.47
2022-10-14T01:19:32.823Z,22.43
2022-10-14T01:22:29.216Z,23.27
2022-10-14T01:25:24.754Z,23.00
2022-10-14T01:28:23.730Z,21.50
2022-10-14T01:31:33.743Z,23.10
2022-10-14T01:34:25.608Z,21.60
2022-10-14T01:37:17.829Z,20.20
2022-10-14T01:40:14.895Z,21.50
2022-10-14T01:43:03.994Z,19.83
2022-10-14T01:45:54.191Z,20.90
2022-10-14T01:48:46.652Z,18.10
2022-10-14T01:51:52.452Z,21.53
2022-10-14T01:54:42.699Z,20.37
2022-10-14T01:57:33.127Z,20.60
2022-10-14T02:00:20.103Z,18.00
2022-10-14T02:03:07.175Z,18.50
2022-10-14T02:06:05.746Z,19.33
2022-10-14T02:09:20.103Z,19.83
2022-10-14T02:12:20.521Z,17.50
2022-10-14T02:15:24.896Z,20.90
2022-10-14T02:18:22.885Z,20.07
2022-10-14T02:21:18.261Z,19.10
2022-10-14T02:24:24.363Z,19.47
2022-10-14T02:27:18.489Z,18.10
2022-10-14T02:30:07.593Z,22.13
2022-10-14T02:32:57.408Z,22.63
2022-10-14T02:35:44.879Z,19.87
2022-10-14T02:38:32.624Z,18.77
2022-10-14T02:41:22.762Z,21.53
2022-10-14T02:44:09.796Z,21.33
2022-10-14T02:46:56.879Z,21.20
2022-10-14T02:49:43.830Z,23.50
2022-10-14T02:52:30.724Z,23.20
2022-10-14T02:55:17.707Z,22.77
2022-10-14T02:58:04.680Z,24.13
2022-10-14T03:00:51.622Z,23.17
2022-10-14T03:03:38.518Z,22.30
2022-10-14T03:06:25.555Z,24.07
2022-10-14T03:09:12.497Z,23.40
2022-10-14T03:11:59.442Z,20.17
2022-10-14T03:14:46.365Z,23.10
2022-10-14T03:17:33.284Z,20.70
2022-10-14T03:20:20.244Z,22.33
2022-10-14T03:23:07.145Z,23.77
2022-10-14T03:25:54.093Z,23.47
2022-10-14T03:28:41.087Z,21.00
2022-10-14T03:31:28.032Z,22.10
2022-10-14T03:34:15.015Z,22.23
2022-10-14T03:37:01.940Z,23.30
2022-10-14T03:39:48.826Z,22.20
2022-10-14T03:42:35.733Z,19.20
2022-10-14T03:45:22.639Z,18.50
2022-10-14T03:48:09.969Z,21.57
2022-10-14T03:50:56.973Z,24.47
2022-10-14T03:53:43.887Z,21.97
2022-10-14T03:56:30.807Z,25.23
2022-10-14T03:59:17.779Z,23.20
2022-10-14T04:02:04.803Z,22.87
2022-10-14T04:04:51.760Z,24.20
2022-10-14T04:07:38.723Z,23.63
2022-10-14T04:10:25.751Z,25.87
2022-10-14T04:13:12.683Z,24.97
2022-10-14T04:16:07.710Z,22.33
2022-10-14T04:18:54.642Z,21.63
2022-10-14T04:21:41.821Z,23.47
2022-10-14T04:24:28.845Z,21.33
2022-10-14T04:27:15.983Z,21.97
2022-10-14T04:30:03.150Z,20.37
2022-10-14T04:32:50.062Z,21.83
2022-10-14T04:35:36.980Z,19.63
2022-10-14T04:38:24.019Z,18.80
2022-10-14T04:41:10.930Z,18.80
2022-10-14T04:43:58.155Z,20.97
2022-10-14T04:46:45.169Z,21.23
2022-10-14T04:49:32.099Z,21.53
2022-10-14T04:52:19.286Z,18.37
2022-10-14T04:55:06.708Z,20.07
2022-10-14T04:57:53.597Z,19.30
2022-10-14T05:00:40.528Z,19.20
2022-10-14T05:03:27.633Z,19.17
2022-10-14T05:06:15.719Z,21.40
2022-10-14T05:09:03.024Z,20.83
2022-10-14T05:11:49.940Z,20.20
2022-10-14T05:14:36.958Z,19.73
2022-10-14T05:17:24.140Z,20.73
2022-10-14T05:20:12.133Z,20.17
2022-10-14T05:22:59.027Z,19.30
2022-10-14T05:25:46.053Z,19.47
2022-10-14T05:28:33.240Z,21.10
2022-10-14T05:31:20.189Z,22.50
2022-10-14T05:34:07.116Z,21.33
2022-10-14T05:36:54.107Z,20.40
2022-10-14T05:39:41.062Z,22.27
2022-10-14T05:42:28.074Z,21.47
2022-10-14T05:45:15.234Z,21.37
2022-10-14T05:48:02.127Z,26.00
2022-10-14T05:50:49.076Z,20.87
2022-10-14T05:53:37.410Z,20.57
2022-10-14T05:56:24.628Z,21.13
2022-10-14T05:59:12.037Z,23.53
2022-10-14T06:01:59.024Z,18.77
2022-10-14T06:04:46.058Z,20.80
2022-10-14T06:07:35.425Z,23.07
2022-10-14T06:10:22.667Z,21.50
2022-10-14T06:13:09.561Z,23.13
2022-10-14T06:15:56.480Z,22.27
2022-10-14T06:18:43.416Z,24.77
2022-10-14T06:21:30.334Z,24.03
2022-10-14T06:24:17.287Z,21.60
2022-10-14T06:27:04.643Z,21.83
2022-10-14T06:29:51.605Z,22.87
2022-10-14T06:32:38.588Z,22.77
2022-10-14T06:35:25.652Z,22.10
2022-10-14T06:38:13.008Z,22.50
2022-10-14T06:40:59.930Z,21.97
2022-10-14T06:43:46.840Z,23.77
2022-10-14T06:46:33.776Z,21.23
2022-10-14T06:49:20.763Z,22.97
2022-10-14T06:52:07.766Z,23.23
2022-10-14T06:54:54.818Z,23.80
2022-10-14T06:57:41.990Z,23.37
2022-10-14T07:00:28.944Z,23.13
2022-10-14T07:03:15.851Z,23.60
2022-10-14T07:06:04.223Z,24.13
2022-10-14T07:08:51.201Z,23.70
2022-10-14T07:11:38.188Z,24.57
2022-10-14T07:14:25.103Z,26.17
2022-10-14T07:17:12.040Z,25.17
2022-10-14T07:19:58.942Z,24.30
2022-10-14T07:22:46.058Z,24.70
2022-10-14T07:25:33.047Z,25.07
2022-10-14T07:28:20.020Z,24.23
2022-10-14T07:31:09.977Z,23.73
2022-10-14T07:33:57.260Z,25.67
2022-10-14T07:36:44.379Z,24.27
2022-10-14T07:39:31.435Z,23.10
2022-10-14T07:42:18.352Z,26.13
2022-10-14T07:45:06.661Z,26.70
2022-10-14T07:47:53.627Z,25.87
2022-10-14T07:50:40.532Z,25.73
2022-10-14T07:53:27.930Z,26.70
2022-10-14T07:56:14.971Z,29.63
2022-10-14T07:59:01.923Z,26.00
2022-10-14T08:01:51.207Z,25.97
2022-10-14T08:04:38.375Z,27.53
2022-10-14T08:07:26.255Z,24.90
2022-10-14T08:10:13.180Z,24.60
2022-10-14T08:13:00.175Z,26.47
2022-10-14T08:15:47.100Z,25.80
2022-10-14T08:18:34.032Z,27.07
2022-10-14T08:21:21.468Z,26.77
2022-10-14T08:24:08.673Z,24.53
2022-10-14T08:26:58.941Z,26.27
2022-10-14T08:29:45.909Z,24.43
2022-10-14T08:32:32.843Z,26.10
2022-10-14T08:35:19.813Z,24.43
2022-10-14T08:38:06.800Z,24.00
2022-10-14T08:41:32.963Z,26.10
2022-10-14T08:44:40.552Z,23.27
2022-10-14T08:47:36.542Z,25.53
2022-10-14T08:50:53.195Z,26.17
2022-10-14T08:53:48.598Z,25.93
2022-10-14T08:56:36.625Z,25.50
2022-10-14T08:59:26.230Z,25.77
2022-10-14T09:02:16.037Z,25.40
2022-10-14T09:05:05.425Z,23.67
2022-10-14T09:07:55.903Z,24.13
2022-10-14T09:10:43.884Z,24.40
2022-10-14T09:13:39.303Z,23.37
2022-10-14T09:16:32.410Z,24.27
2022-10-14T09:19:33.019Z,22.97
2022-10-14T09:22:20.454Z,22.47
2022-10-14T09:25:17.604Z,22.70
2022-10-14T09:28:04.691Z,22.13
2022-10-14T09:30:51.634Z,21.97
2022-10-14T09:33:42.271Z,21.27
2022-10-14T09:36:29.723Z,21.60
2022-10-14T09:39:17.468Z,21.33
2022-10-14T09:42:05.552Z,22.47
2022-10-14T09:45:13.670Z,21.37
2022-10-14T09:48:07.487Z,23.07
2022-10-14T09:50:56.514Z,23.70
2022-10-14T09:53:50.511Z,23.33
2022-10-14T09:56:41.895Z,22.83
2022-10-14T09:59:29.718Z,21.93
2022-10-14T10:02:23.723Z,22.27
2022-10-14T10:05:44.052Z,21.73
2022-10-14T10:08:31.581Z,21.13
2022-10-14T10:11:44.539Z,20.67
2022-10-14T10:14:33.565Z,21.07
2022-10-14T10:17:21.792Z,21.37
2022-10-14T10:20:20.217Z,20.17
2022-10-14T10:23:25.685Z,20.20
2022-10-14T10:26:25.682Z,20.53
2022-10-14T10:29:35.213Z,22.47
2022-10-14T10:33:07.888Z,22.70
2022-10-14T10:36:26.363Z,19.97
2022-10-14T10:39:53.761Z,21.73
2022-10-14T10:43:03.523Z,22.57
2022-10-14T10:46:18.136Z,21.20
2022-10-14T10:49:42.942Z,19.93
2022-10-14T10:52:56.425Z,19.63
2022-10-14T10:56:10.857Z,21.23
2022-10-14T10:59:21.787Z,19.93
2022-10-14T11:02:20.956Z,19.93
2022-10-14T11:05:45.948Z,18.50
2022-10-14T11:09:19.547Z,20.40
2022-10-14T11:12:20.640Z,18.53
2022-10-14T11:15:29.091Z,20.40
2022-10-14T11:18:45.143Z,20.37
2022-10-14T11:21:35.034Z,19.23
2022-10-14T11:24:42.254Z,20.07
2022-10-14T11:27:42.918Z,19.67
2022-10-14T11:30:44.157Z,21.00
2022-10-14T11:33:44.343Z,20.37
2022-10-14T11:36:45.566Z,18.57
2022-10-14T11:39:54.637Z,16.20
2022-10-14T11:42:50.678Z,16.48
2022-10-14T11:46:20.180Z,16.55
2022-10-14T11:49:22.431Z,17.65
2022-10-14T11:52:17.040Z,17.40
2022-10-14T11:55:15.526Z,18.13
2022-10-14T11:58:15.026Z,16.75
2022-10-14T12:01:22.526Z,16.27
2022-10-14T12:04:22.685Z,15.52
2022-10-14T12:07:18.046Z,15.15
2022-10-14T12:10:15.344Z,15.15
2022-10-14T12:13:07.846Z,15.60
2022-10-14T12:15:54.989Z,15.35
2022-10-14T12:18:44.558Z,17.58
2022-10-14T12:21:49.875Z,15.38
2022-10-14T12:24:41.524Z,15.60
2022-10-14T12:27:29.652Z,15.00
2022-10-14T12:30:35.903Z,14.98
2022-10-14T12:33:23.233Z,15.20
2022-10-14T12:36:30.700Z,14.10
2022-10-14T12:39:17.632Z,11.20
2022-10-14T12:42:11.128Z,11.48
2022-10-14T12:45:01.597Z,10.70
2022-10-14T12:48:03.084Z,11.27
2022-10-14T12:51:10.639Z,11.27
2022-10-14T12:54:11.955Z,11.63
2022-10-14T12:57:15.717Z,11.90
2022-10-14T13:00:12.614Z,11.32
2022-10-14T13:03:04.361Z,10.80
2022-10-14T13:05:51.348Z,11.63
2022-10-14T13:08:38.301Z,9.93
2022-10-14T13:11:28.214Z,10.80
2022-10-14T13:15:04.115Z,11.30
2022-10-14T13:17:51.046Z,12.50
2022-10-14T13:20:37.907Z,12.80
2022-10-14T13:23:31.814Z,11.60
2022-10-14T13:26:41.355Z,11.77
2022-10-14T13:29:55.277Z,12.83
2022-10-14T13:32:49.001Z,13.40
2022-10-14T13:35:52.774Z,13.17
2022-10-14T13:38:45.343Z,14.13
2022-10-14T13:41:34.524Z,14.47
2022-10-14T13:44:21.847Z,13.07
2022-10-14T13:47:13.391Z,12.67
2022-10-14T13:50:01.664Z,12.87
2022-10-14T13:52:57.857Z,12.57
2022-10-14T13:55:50.346Z,11.77
2022-10-14T13:58:41.831Z,11.40
2022-10-14T14:01:39.535Z,13.50
2022-10-14T14:04:37.192Z,11.90
2022-10-14T14:10:51.505Z,12.00
2022-10-14T14:14:15.934Z,11.40
2022-10-14T14:17:06.179Z,10.63
2022-10-14T14:19:54.675Z,9.07
2022-10-14T14:22:45.687Z,9.73
2022-10-14T14:25:35.369Z,12.50
2022-10-14T14:28:29.890Z,11.87
2022-10-14T14:31:19.579Z,12.03
2022-10-14T14:34:06.634Z,10.60
2022-10-14T14:37:01.405Z,8.87
2022-10-14T14:40:03.954Z,8.73
2022-10-14T14:43:02.716Z,7.77
2022-10-14T14:45:49.693Z,7.10
2022-10-14T14:48:44.889Z,7.63
2022-10-14T14:51:37.916Z,6.77
2022-10-14T14:54:25.951Z,7.57
2022-10-14T14:57:17.284Z,7.40
2022-10-14T15:00:07.386Z,6.83
2022-10-14T15:02:59.967Z,6.60
2022-10-14T15:06:05.293Z,5.73
2022-10-14T15:08:55.537Z,6.20
2022-10-14T15:11:57.313Z,5.23
2022-10-14T15:14:47.470Z,5.30
2022-10-14T15:17:36.901Z,5.30
2022-10-14T15:20:27.340Z,5.07
2022-10-14T15:23:45.811Z,5.40
2022-10-14T15:26:36.726Z,4.70
2022-10-14T15:29:24.859Z,6.23
2022-10-14T15:32:14.188Z,5.73
2022-10-14T15:35:01.399Z,7.37
2022-10-14T15:37:51.867Z,7.83
2022-10-14T15:40:40.718Z,7.40
2022-10-14T15:43:27.840Z,6.60
2022-10-14T15:46:33.574Z,7.60
2022-10-14T15:49:28.039Z,7.67
2022-10-14T15:52:16.640Z,6.27
2022-10-14T15:55:19.604Z,7.97
2022-10-14T15:58:06.565Z,7.17
2022-10-14T16:00:53.783Z,7.30
2022-10-14T16:03:41.253Z,7.50
2022-10-14T16:06:32.310Z,7.70
2022-10-14T16:09:19.218Z,7.80
2022-10-14T16:12:10.565Z,8.03
2022-10-14T16:14:58.961Z,7.40
2022-10-14T16:17:48.764Z,7.83
2022-10-14T16:20:38.889Z,6.87
2022-10-14T16:23:29.590Z,6.47
2022-10-14T16:26:20.451Z,7.03
2022-10-14T16:29:07.364Z,7.17
2022-10-14T16:31:54.522Z,6.67
2022-10-14T16:34:41.477Z,7.50
2022-10-14T16:37:28.383Z,7.40
2022-10-14T16:40:15.431Z,6.97
2022-10-14T16:43:02.375Z,7.57
2022-10-14T16:45:49.383Z,6.47
2022-10-14T16:48:36.318Z,7.83
2022-10-14T16:51:23.248Z,7.20
2022-10-14T16:54:10.899Z,7.10
2022-10-14T16:56:57.865Z,7.20
2022-10-14T16:59:44.808Z,7.30
2022-10-14T17:02:31.797Z,6.27
2022-10-14T17:05:18.731Z,7.80
2022-10-14T17:08:05.818Z,7.60
2022-10-14T17:10:57.228Z,7.10
2022-10-14T17:13:44.286Z,7.17
2022-10-14T17:16:31.540Z,7.30
2022-10-14T17:19:19.525Z,7.50
2022-10-14T17:22:06.422Z,8.47
2022-10-14T17:24:54.253Z,8.30
2022-10-14T17:27:41.208Z,8.20
2022-10-14T17:30:28.153Z,8.47
2022-10-14T17:33:15.147Z,8.53
2022-10-14T17:36:02.146Z,9.23
2022-10-14T17:38:50.811Z,10.80
2022-10-14T17:41:37.771Z,9.13
2022-10-14T17:44:25.095Z,9.57
2022-10-14T17:47:12.069Z,9.50
2022-10-14T17:49:59.313Z,9.30
2022-10-14T17:52:46.372Z,7.40
2022-10-14T17:55:36.076Z,7.43
2022-10-14T17:58:23.341Z,7.73
2022-10-14T18:01:13.181Z,7.37
2022-10-14T18:04:00.907Z,9.27
2022-10-14T18:06:48.417Z,9.13
2022-10-14T18:09:35.417Z,7.23
2022-10-14T18:12:24.071Z,7.40
2022-10-14T18:15:11.070Z,8.60
2022-10-14T18:17:58.558Z,8.50
2022-10-14T18:20:45.471Z,7.77
2022-10-14T18:23:34.017Z,9.27
2022-10-14T18:26:21.504Z,8.33
2022-10-14T18:29:09.171Z,7.80
2022-10-14T18:31:56.318Z,9.60
2022-10-14T18:34:43.989Z,9.17
2022-10-14T18:37:31.488Z,9.10
2022-10-14T18:40:20.851Z,9.17
2022-10-14T18:43:08.072Z,9.20
2022-10-14T18:46:21.658Z,10.60
2022-10-14T18:49:10.992Z,9.33
2022-10-14T18:51:57.971Z,8.87
2022-10-14T18:54:44.871Z,9.60
2022-10-14T18:57:31.985Z,9.30
2022-10-14T19:00:19.160Z,9.03
2022-10-14T19:03:06.788Z,9.27
2022-10-14T19:05:57.477Z,7.90
2022-10-14T19:08:46.212Z,8.43
2022-10-14T19:11:34.515Z,8.60
2022-10-14T19:14:22.151Z,8.93
2022-10-14T19:17:09.112Z,7.90
2022-10-14T19:19:56.104Z,8.03
2022-10-14T19:22:45.249Z,7.87
2022-10-14T19:25:32.488Z,8.47
2022-10-14T19:28:19.930Z,8.20
2022-10-14T19:31:15.349Z,7.70
2022-10-14T19:34:04.763Z,8.30
2022-10-14T19:36:51.684Z,8.97
2022-10-14T19:39:39.488Z,8.57
2022-10-14T19:42:26.450Z,7.53
2022-10-14T19:45:13.412Z,7.87
2022-10-14T19:48:00.355Z,7.70
2022-10-14T19:50:47.314Z,8.07
2022-10-14T19:53:34.318Z,7.63
2022-10-14T19:56:21.840Z,7.97
2022-10-14T19:59:09.355Z,8.10
2022-10-14T20:01:56.269Z,8.30
2022-10-14T20:04:43.205Z,8.90
2022-10-14T20:07:30.119Z,8.23
2022-10-14T20:10:17.077Z,7.87
2022-10-14T20:13:04.008Z,7.63
2022-10-14T20:15:55.368Z,7.67
2022-10-14T20:18:42.699Z,8.03
2022-10-14T20:21:30.856Z,8.70
2022-10-14T20:24:17.814Z,7.40
2022-10-14T20:27:06.771Z,8.37
2022-10-14T20:29:56.484Z,7.17
2022-10-14T20:32:43.451Z,7.73
2022-10-14T20:35:30.377Z,7.70
2022-10-14T20:38:17.292Z,8.47
2022-10-14T20:41:18.744Z,8.50
2022-10-14T20:44:05.798Z,7.20
2022-10-14T20:46:52.740Z,7.60
2022-10-14T20:49:39.731Z,8.10
2022-10-14T20:52:26.639Z,7.10
2022-10-14T20:55:13.634Z,7.47
2022-10-14T20:58:00.553Z,8.17
2022-10-14T21:00:47.525Z,6.90
2022-10-14T21:03:34.837Z,6.93
2022-10-14T21:06:23.864Z,7.40
2022-10-14T21:09:10.902Z,8.00
2022-10-14T21:11:57.935Z,7.17
2022-10-14T21:14:44.916Z,6.80
2022-10-14T21:17:31.885Z,7.60
2022-10-14T21:20:18.797Z,7.30
2022-10-14T21:23:05.714Z,6.60
2022-10-14T21:25:57.270Z,6.23
2022-10-14T21:28:44.324Z,7.67
2022-10-14T21:31:31.432Z,6.80
2022-10-14T21:34:18.430Z,6.47
2022-10-14T21:37:05.389Z,7.37
2022-10-14T21:39:52.293Z,6.40
2022-10-14T21:42:39.249Z,6.93
2022-10-14T21:45:26.204Z,6.57
2022-10-14T21:48:13.124Z,6.20
2022-10-14T21:51:04.069Z,5.80
2022-10-14T21:53:51.016Z,6.80
2022-10-14T21:56:38.541Z,6.47
2022-10-14T21:59:25.488Z,7.00
2022-10-14T22:02:12.408Z,6.70
2022-10-14T22:04:59.379Z,6.27
2022-10-14T22:07:46.777Z,6.20
2022-10-14T22:10:44.910Z,6.03
2022-10-14T22:13:32.410Z,5.87
2022-10-14T22:16:19.624Z,5.47
2022-10-14T22:19:07.369Z,5.73
2022-10-14T22:21:54.344Z,6.03
2022-10-14T22:24:42.671Z,6.00
2022-10-14T22:27:29.588Z,5.43
2022-10-14T22:30:16.679Z,5.57
2022-10-14T22:33:03.818Z,5.77
2022-10-14T22:35:51.292Z,5.20
2022-10-14T22:38:39.929Z,5.23
2022-10-14T22:41:32.336Z,5.07
2022-10-14T22:44:21.084Z,5.60
2022-10-14T22:47:08.188Z,5.60
2022-10-14T22:49:55.111Z,5.20
2022-10-14T22:52:42.019Z,4.53
2022-10-14T22:55:28.927Z,4.80
2022-10-14T22:58:15.840Z,4.93
2022-10-14T23:01:07.654Z,5.17
2022-10-14T23:03:56.261Z,5.47
2022-10-14T23:06:46.616Z,5.10
2022-10-14T23:12:20.702Z,4.63
2022-10-14T23:15:08.426Z,5.07
2022-10-14T23:17:55.363Z,5.30
2022-10-14T23:20:42.259Z,4.80
2022-10-14T23:23:29.168Z,5.20
2022-10-14T23:26:21.197Z,5.27
2022-10-14T23:29:11.436Z,5.07
2022-10-14T23:31:58.425Z,4.93
2022-10-14T23:34:45.336Z,5.47
2022-10-14T23:37:32.253Z,5.50
2022-10-14T23:40:19.255Z,5.33
2022-10-14T23:43:06.224Z,5.40
2022-10-14T23:45:53.194Z,5.47
2022-10-14T23:48:40.697Z,4.77
2022-10-14T23:51:27.725Z,4.93
2022-10-14T23:54:14.700Z,4.97
2022-10-14T23:57:01.640Z,5.47
2022-10-14T23:59:48.701Z,4.50
